createdAt,value
2018-09-06T00:00:33.448Z,23.55
2018-09-06T00:01:13.970Z,23.73
2018-09-06T00:01:54.515Z,23.58
2018-09-06T00:02:35.043Z,23.69
2018-09-06T00:03:15.574Z,23.65
2018-09-06T00:03:56.100Z,23.63
2018-09-06T00:04:36.624Z,23.65
2018-09-06T00:05:17.154Z,23.58
2018-09-06T00:05:57.680Z,23.63
2018-09-06T00:06:38.207Z,23.46
2018-09-06T00:07:18.982Z,23.54
2018-09-06T00:07:59.500Z,23.6
2018-09-06T00:08:40.027Z,23.54
2018-09-06T00:09:20.545Z,23.58
2018-09-06T00:10:01.073Z,23.58
2018-09-06T00:10:41.597Z,23.63
2018-09-06T00:11:22.132Z,23.61
2018-09-06T00:12:02.660Z,23.6
2018-09-06T00:12:43.183Z,23.61
2018-09-06T00:13:23.712Z,23.6
2018-09-06T00:14:04.243Z,23.6
2018-09-06T00:14:44.763Z,23.66
2018-09-06T00:15:25.292Z,23.63
2018-09-06T00:16:05.801Z,23.6
2018-09-06T00:16:46.322Z,23.6
2018-09-06T00:17:26.842Z,23.54
2018-09-06T00:18:07.365Z,23.54
2018-09-06T00:18:47.906Z,23.51
2018-09-06T00:19:28.425Z,23.55
2018-09-06T00:20:08.951Z,23.51
2018-09-06T00:20:49.488Z,23.53
2018-09-06T00:21:30.017Z,23.39
2018-09-06T00:22:10.524Z,23.5
2018-09-06T00:22:51.044Z,23.57
2018-09-06T00:23:31.581Z,23.4
2018-09-06T00:24:12.098Z,23.39
2018-09-06T00:24:52.622Z,23.47
2018-09-06T00:25:33.141Z,23.51
2018-09-06T00:26:13.678Z,23.57
2018-09-06T00:26:54.198Z,23.54
2018-09-06T00:27:34.717Z,23.53
2018-09-06T00:28:15.244Z,23.63
2018-09-06T00:28:55.762Z,23.63
2018-09-06T00:29:36.285Z,23.54
2018-09-06T00:30:16.796Z,23.51
2018-09-06T00:30:57.312Z,23.43
2018-09-06T00:31:37.843Z,23.48
2018-09-06T00:32:18.376Z,23.48
2018-09-06T00:32:58.927Z,23.51
2018-09-06T00:33:39.433Z,23.61
2018-09-06T00:34:19.956Z,23.57
2018-09-06T00:35:00.514Z,23.53
2018-09-06T00:36:58.734Z,23.61
2018-09-06T00:37:39.266Z,23.54
2018-09-06T00:38:19.808Z,23.51
2018-09-06T00:39:00.327Z,23.47
2018-09-06T00:39:40.839Z,23.58
2018-09-06T00:40:21.357Z,23.58
2018-09-06T00:41:01.898Z,23.6
2018-09-06T00:41:42.422Z,23.61
2018-09-06T00:42:22.943Z,23.65
2018-09-06T00:43:03.481Z,23.68
2018-09-06T00:43:43.993Z,23.53
2018-09-06T00:44:24.513Z,23.58
2018-09-06T00:45:05.045Z,23.55
2018-09-06T00:45:45.564Z,23.68
2018-09-06T00:46:26.110Z,23.7
2018-09-06T00:47:06.640Z,23.58
2018-09-06T00:47:47.169Z,23.57
2018-09-06T00:48:27.689Z,23.61
2018-09-06T00:49:08.192Z,23.53
2018-09-06T00:49:48.705Z,23.58
2018-09-06T00:50:29.228Z,23.61
2018-09-06T00:51:09.737Z,23.58
2018-09-06T00:51:50.252Z,23.57
2018-09-06T00:52:30.808Z,23.68
2018-09-06T00:53:11.343Z,23.7
2018-09-06T00:53:51.852Z,23.63
2018-09-06T00:54:32.367Z,23.57
2018-09-06T00:55:12.889Z,23.63
2018-09-06T00:55:53.413Z,23.55
2018-09-06T00:56:33.919Z,23.61
2018-09-06T00:57:14.445Z,23.54
2018-09-06T00:57:54.956Z,23.68
2018-09-06T00:58:35.473Z,23.58
2018-09-06T00:59:16.002Z,23.72
2018-09-06T00:59:56.567Z,23.68
2018-09-06T01:00:37.053Z,23.68
2018-09-06T01:01:17.564Z,23.7
2018-09-06T01:01:58.102Z,23.63
2018-09-06T01:02:38.648Z,23.58
2018-09-06T01:03:19.154Z,23.55
2018-09-06T01:03:59.683Z,23.57
2018-09-06T01:04:40.226Z,23.65
2018-09-06T01:05:20.762Z,23.57
2018-09-06T01:06:01.274Z,23.55
2018-09-06T01:06:41.797Z,23.61
2018-09-06T01:07:22.326Z,23.61
2018-09-06T01:08:02.852Z,23.65
2018-09-06T01:08:43.370Z,23.46
2018-09-06T01:09:23.887Z,23.54
2018-09-06T01:10:04.421Z,23.6
2018-09-06T01:10:44.942Z,23.51
2018-09-06T01:11:25.453Z,23.61
2018-09-06T01:12:05.983Z,23.6
2018-09-06T01:12:46.517Z,23.7
2018-09-06T01:13:27.061Z,23.55
2018-09-06T01:14:07.562Z,23.6
2018-09-06T01:14:48.091Z,23.48
2018-09-06T01:15:28.599Z,23.61
2018-09-06T01:16:09.119Z,23.66
2018-09-06T01:16:50.120Z,23.63
2018-09-06T01:17:30.651Z,23.57
2018-09-06T01:18:11.174Z,23.5
2018-09-06T01:18:51.698Z,23.58
2018-09-06T01:19:32.223Z,23.46
2018-09-06T01:20:12.735Z,23.48
2018-09-06T01:20:53.244Z,23.54
2018-09-06T01:21:33.765Z,23.5
2018-09-06T01:22:14.283Z,23.57
2018-09-06T01:24:07.816Z,23.61
2018-09-06T01:24:48.340Z,23.6
2018-09-06T01:25:28.871Z,23.55
2018-09-06T01:26:09.393Z,23.53
2018-09-06T01:26:49.949Z,23.43
2018-09-06T01:27:30.473Z,23.54
2018-09-06T01:28:10.980Z,23.55
2018-09-06T01:28:51.493Z,23.54
2018-09-06T01:29:32.014Z,23.63
2018-09-06T01:30:12.547Z,23.54
2018-09-06T01:30:53.063Z,23.4
2018-09-06T01:31:33.594Z,23.5
2018-09-06T01:32:14.109Z,23.47
2018-09-06T01:32:54.631Z,23.47
2018-09-06T01:33:35.165Z,23.4
2018-09-06T01:34:15.657Z,23.46
2018-09-06T01:34:56.178Z,23.46
2018-09-06T01:35:36.698Z,23.38
2018-09-06T01:36:17.231Z,23.35
2018-09-06T01:36:57.738Z,23.38
2018-09-06T01:37:38.282Z,23.43
2018-09-06T01:38:18.846Z,23.43
2018-09-06T01:38:59.328Z,23.4
2018-09-06T01:39:39.841Z,23.47
2018-09-06T01:40:20.366Z,23.54
2018-09-06T01:41:00.928Z,23.48
2018-09-06T01:41:41.444Z,23.38
2018-09-06T01:42:21.966Z,23.32
2018-09-06T01:43:02.481Z,23.38
2018-09-06T01:43:42.991Z,23.35
2018-09-06T01:44:23.505Z,23.35
2018-09-06T01:45:04.051Z,23.36
2018-09-06T01:45:44.571Z,23.33
2018-09-06T01:46:25.090Z,23.36
2018-09-06T01:47:05.613Z,23.31
2018-09-06T01:47:46.135Z,23.31
2018-09-06T01:48:26.637Z,23.23
2018-09-06T01:49:07.160Z,23.23
2018-09-06T01:49:47.690Z,23.2
2018-09-06T01:50:28.232Z,23.16
2018-09-06T01:51:08.757Z,23.05
2018-09-06T01:51:49.287Z,23.02
2018-09-06T01:52:29.836Z,23.01
2018-09-06T01:53:10.374Z,23.02
2018-09-06T01:53:50.911Z,23
2018-09-06T01:54:31.426Z,23.17
2018-09-06T01:55:11.948Z,23.13
2018-09-06T01:55:52.484Z,23.12
2018-09-06T01:56:32.999Z,23.16
2018-09-06T01:57:13.531Z,23.27
2018-09-06T01:57:54.053Z,23.13
2018-09-06T01:58:34.567Z,23.12
2018-09-06T01:59:15.086Z,23.15
2018-09-06T01:59:55.599Z,23.01
2018-09-06T02:00:36.128Z,23.12
2018-09-06T02:01:16.648Z,23.19
2018-09-06T02:01:57.154Z,23.22
2018-09-06T02:02:37.696Z,23.12
2018-09-06T02:03:18.201Z,23.05
2018-09-06T02:03:58.712Z,23.16
2018-09-06T02:04:39.243Z,23.17
2018-09-06T02:05:19.735Z,23.22
2018-09-06T02:06:00.263Z,23.16
2018-09-06T02:06:40.771Z,23.09
2018-09-06T02:07:21.288Z,23.01
2018-09-06T02:08:01.812Z,22.97
2018-09-06T02:08:42.317Z,22.97
2018-09-06T02:09:22.853Z,22.92
2018-09-06T02:10:03.360Z,22.83
2018-09-06T02:10:43.888Z,23.01
2018-09-06T02:11:24.421Z,22.83
2018-09-06T02:12:04.944Z,22.88
2018-09-06T02:12:45.486Z,22.82
2018-09-06T02:13:26.007Z,22.85
2018-09-06T02:14:06.524Z,22.8
2018-09-06T02:14:47.046Z,22.88
2018-09-06T02:15:27.562Z,22.91
2018-09-06T02:16:08.082Z,22.95
2018-09-06T02:16:48.600Z,23
2018-09-06T02:17:29.121Z,23.1
2018-09-06T02:18:09.635Z,23.02
2018-09-06T02:18:50.174Z,22.98
2018-09-06T02:19:30.677Z,22.97
2018-09-06T02:20:11.196Z,22.9
2018-09-06T02:20:51.717Z,22.98
2018-09-06T02:21:32.244Z,23.02
2018-09-06T02:22:12.768Z,23
2018-09-06T02:22:53.439Z,22.98
2018-09-06T02:23:33.973Z,23.05
2018-09-06T02:24:14.525Z,23.12
2018-09-06T02:24:55.010Z,23.01
2018-09-06T02:25:35.520Z,23.1
2018-09-06T02:26:16.081Z,23.07
2018-09-06T02:26:56.599Z,23.12
2018-09-06T02:27:37.135Z,23.12
2018-09-06T02:28:17.646Z,23.17
2018-09-06T02:28:58.162Z,23.05
2018-09-06T02:29:38.677Z,23.07
2018-09-06T02:30:19.213Z,23.07
2018-09-06T02:30:59.728Z,23.07
2018-09-06T02:31:40.254Z,23.1
2018-09-06T02:32:20.758Z,23.15
2018-09-06T02:33:01.290Z,23.15
2018-09-06T02:33:41.780Z,23.09
2018-09-06T02:34:22.290Z,23.15
2018-09-06T02:35:02.812Z,23.04
2018-09-06T02:35:43.322Z,23.04
2018-09-06T02:36:23.865Z,22.97
2018-09-06T02:37:04.379Z,22.94
2018-09-06T02:37:44.909Z,22.77
2018-09-06T02:38:25.435Z,22.86
2018-09-06T02:39:05.973Z,22.79
2018-09-06T02:39:46.492Z,22.88
2018-09-06T02:40:27.015Z,22.91
2018-09-06T02:41:07.526Z,22.92
2018-09-06T02:41:48.064Z,23
2018-09-06T02:42:28.580Z,23.01
2018-09-06T02:43:09.097Z,23.01
2018-09-06T02:43:49.617Z,23.17
2018-09-06T02:44:30.123Z,23.15
2018-09-06T02:45:10.647Z,23.1
2018-09-06T02:45:51.160Z,23.12
2018-09-06T02:46:31.682Z,23.12
2018-09-06T02:47:12.202Z,23.09
2018-09-06T02:47:52.753Z,23.09
2018-09-06T02:48:33.277Z,23.15
2018-09-06T02:49:13.798Z,23.07
2018-09-06T02:49:54.315Z,23.05
2018-09-06T02:50:34.831Z,23.17
2018-09-06T02:51:15.344Z,23.09
2018-09-06T02:51:55.884Z,23.13
2018-09-06T02:52:36.407Z,23.09
2018-09-06T02:53:16.953Z,23.02
2018-09-06T02:53:57.516Z,22.95
2018-09-06T02:54:37.970Z,22.86
2018-09-06T02:55:18.492Z,22.9
2018-09-06T02:55:59.018Z,22.8
2018-09-06T02:56:39.556Z,22.85
2018-09-06T02:57:20.097Z,23.02
2018-09-06T02:58:00.620Z,23.04
2018-09-06T02:58:41.136Z,22.98
2018-09-06T02:59:21.698Z,22.88
2018-09-06T03:00:02.229Z,22.82
2018-09-06T03:00:42.736Z,22.86
2018-09-06T03:02:20.612Z,22.86
2018-09-06T03:03:01.153Z,22.95
2018-09-06T03:03:41.668Z,23
2018-09-06T03:04:22.184Z,22.97
2018-09-06T03:05:02.705Z,22.97
2018-09-06T03:05:43.258Z,22.95
2018-09-06T03:06:23.762Z,23.01
2018-09-06T03:07:04.282Z,23.13
2018-09-06T03:07:45.113Z,22.97
2018-09-06T03:08:25.311Z,23.1
2018-09-06T03:09:05.843Z,23.17
2018-09-06T03:09:46.363Z,23.17
2018-09-06T03:10:26.892Z,23.15
2018-09-06T03:11:07.406Z,23.1
2018-09-06T03:11:47.918Z,23.12
2018-09-06T03:12:28.428Z,23.01
2018-09-06T03:13:08.951Z,23.01
2018-09-06T03:13:49.468Z,23.12
2018-09-06T03:14:29.989Z,23.17
2018-09-06T03:15:10.512Z,23.15
2018-09-06T03:15:51.042Z,23.13
2018-09-06T03:16:31.541Z,23.12
2018-09-06T03:17:12.055Z,23.13
2018-09-06T03:17:52.568Z,23.15
2018-09-06T03:18:33.162Z,23.15
2018-09-06T03:19:13.623Z,23.15
2018-09-06T03:19:54.160Z,23.13
2018-09-06T03:20:34.680Z,23.12
2018-09-06T03:21:15.200Z,23.09
2018-09-06T03:21:55.724Z,23.17
2018-09-06T03:22:36.241Z,23.13
2018-09-06T03:23:16.759Z,23
2018-09-06T03:23:57.291Z,23.13
2018-09-06T03:24:37.835Z,23.12
2018-09-06T03:25:18.360Z,23.13
2018-09-06T03:25:58.904Z,23.1
2018-09-06T03:26:39.422Z,23.15
2018-09-06T03:27:19.960Z,23.16
2018-09-06T03:28:00.480Z,23
2018-09-06T03:28:41.012Z,22.94
2018-09-06T03:29:21.544Z,22.94
2018-09-06T03:30:02.066Z,23
2018-09-06T03:30:42.578Z,23
2018-09-06T03:31:23.107Z,23.12
2018-09-06T03:32:03.619Z,23.04
2018-09-06T03:32:44.160Z,22.9
2018-09-06T03:33:24.668Z,22.8
2018-09-06T03:34:05.200Z,22.86
2018-09-06T03:34:45.721Z,22.85
2018-09-06T03:35:26.221Z,22.76
2018-09-06T03:36:06.845Z,22.94
2018-09-06T03:36:47.265Z,22.86
2018-09-06T03:37:27.771Z,22.77
2018-09-06T03:38:08.278Z,22.86
2018-09-06T03:38:48.790Z,22.86
2018-09-06T03:39:29.325Z,22.9
2018-09-06T03:40:09.845Z,22.86
2018-09-06T03:40:50.361Z,22.77
2018-09-06T03:41:30.880Z,22.82
2018-09-06T03:42:11.423Z,22.8
2018-09-06T03:42:51.934Z,22.75
2018-09-06T03:43:32.467Z,22.83
2018-09-06T03:44:12.983Z,22.88
2018-09-06T03:44:53.519Z,22.79
2018-09-06T03:45:34.043Z,22.76
2018-09-06T03:46:14.567Z,22.82
2018-09-06T03:46:55.088Z,22.75
2018-09-06T03:47:35.616Z,22.61
2018-09-06T03:48:16.130Z,22.58
2018-09-06T03:48:56.646Z,22.51
2018-09-06T03:49:37.235Z,22.55
2018-09-06T03:50:17.759Z,22.54
2018-09-06T03:50:58.307Z,22.57
2018-09-06T03:51:38.833Z,22.58
2018-09-06T03:52:19.354Z,22.55
2018-09-06T03:52:59.869Z,22.64
2018-09-06T03:53:40.399Z,22.57
2018-09-06T03:54:20.932Z,22.67
2018-09-06T03:55:01.446Z,22.65
2018-09-06T03:55:41.997Z,22.7
2018-09-06T03:56:22.518Z,22.73
2018-09-06T03:57:03.032Z,22.67
2018-09-06T03:57:43.575Z,22.72
2018-09-06T03:58:24.094Z,22.7
2018-09-06T03:59:04.629Z,22.72
2018-09-06T03:59:45.136Z,22.65
2018-09-06T04:00:25.662Z,22.57
2018-09-06T04:01:06.182Z,22.61
2018-09-06T04:01:46.706Z,22.57
2018-09-06T04:02:27.221Z,22.61
2018-09-06T04:03:07.739Z,22.7
2018-09-06T04:03:48.280Z,22.68
2018-09-06T04:04:28.783Z,22.64
2018-09-06T04:05:09.303Z,22.73
2018-09-06T04:05:49.830Z,22.77
2018-09-06T04:06:30.371Z,22.67
2018-09-06T04:07:10.892Z,22.65
2018-09-06T04:07:51.454Z,22.6
2018-09-06T04:08:31.995Z,22.6
2018-09-06T04:09:12.512Z,22.57
2018-09-06T04:09:53.022Z,22.52
2018-09-06T04:10:33.566Z,22.52
2018-09-06T04:11:14.186Z,22.49
2018-09-06T04:11:54.676Z,22.49
2018-09-06T04:12:35.191Z,22.39
2018-09-06T04:13:15.726Z,22.28
2018-09-06T04:13:56.240Z,22.33
2018-09-06T04:14:36.785Z,22.37
2018-09-06T04:15:17.325Z,22.4
2018-09-06T04:15:57.845Z,22.45
2018-09-06T04:16:38.373Z,22.57
2018-09-06T04:17:18.888Z,22.49
2018-09-06T04:17:59.417Z,22.52
2018-09-06T04:18:40.015Z,22.54
2018-09-06T04:19:20.462Z,22.55
2018-09-06T04:20:00.991Z,22.55
2018-09-06T04:20:41.518Z,22.49
2018-09-06T04:21:22.023Z,22.58
2018-09-06T04:22:02.542Z,22.61
2018-09-06T04:22:43.086Z,22.47
2018-09-06T04:23:23.590Z,22.62
2018-09-06T04:24:04.126Z,22.51
2018-09-06T04:24:44.644Z,22.6
2018-09-06T04:25:25.163Z,22.61
2018-09-06T04:26:05.686Z,22.65
2018-09-06T04:26:46.228Z,22.6
2018-09-06T04:27:26.742Z,22.61
2018-09-06T04:28:07.278Z,22.61
2018-09-06T04:28:47.784Z,22.64
2018-09-06T04:29:28.280Z,22.68
2018-09-06T04:30:08.796Z,22.67
2018-09-06T04:30:49.334Z,22.61
2018-09-06T04:31:29.856Z,22.62
2018-09-06T04:32:10.381Z,22.7
2018-09-06T04:32:50.905Z,22.61
2018-09-06T04:33:31.425Z,22.6
2018-09-06T04:34:11.956Z,22.57
2018-09-06T04:34:52.487Z,22.61
2018-09-06T04:35:33.099Z,22.62
2018-09-06T04:36:13.679Z,22.64
2018-09-06T04:36:54.114Z,22.61
2018-09-06T04:37:34.634Z,22.61
2018-09-06T04:38:15.153Z,22.6
2018-09-06T04:38:55.676Z,22.52
2018-09-06T04:39:36.197Z,22.57
2018-09-06T04:40:16.737Z,22.54
2018-09-06T04:40:57.257Z,22.57
2018-09-06T04:41:37.767Z,22.64
2018-09-06T04:42:18.311Z,22.58
2018-09-06T04:42:58.826Z,22.58
2018-09-06T04:43:39.386Z,22.55
2018-09-06T04:44:19.858Z,22.62
2018-09-06T04:45:00.376Z,22.54
2018-09-06T04:45:40.906Z,22.51
2018-09-06T04:46:21.435Z,22.51
2018-09-06T04:47:01.998Z,22.55
2018-09-06T04:47:42.482Z,22.51
2018-09-06T04:48:23.014Z,22.64
2018-09-06T04:49:03.586Z,22.57
2018-09-06T04:49:44.104Z,22.57
2018-09-06T04:50:24.640Z,22.61
2018-09-06T04:51:05.167Z,22.55
2018-09-06T04:51:45.678Z,22.54
2018-09-06T04:52:26.195Z,22.67
2018-09-06T04:53:06.720Z,22.61
2018-09-06T04:53:47.263Z,22.57
2018-09-06T04:54:27.788Z,22.58
2018-09-06T04:55:08.369Z,22.55
2018-09-06T04:55:48.937Z,22.58
2018-09-06T04:56:29.471Z,22.65
2018-09-06T04:57:09.999Z,22.58
2018-09-06T04:57:50.534Z,22.67
2018-09-06T04:58:31.103Z,22.6
2018-09-06T04:59:11.566Z,22.64
2018-09-06T04:59:52.116Z,22.58
2018-09-06T05:00:32.622Z,22.54
2018-09-06T05:01:13.137Z,22.61
2018-09-06T05:01:53.656Z,22.61
2018-09-06T05:02:34.167Z,22.7
2018-09-06T05:03:14.696Z,22.49
2018-09-06T05:03:55.216Z,22.52
2018-09-06T05:04:35.731Z,22.49
2018-09-06T05:05:16.252Z,22.47
2018-09-06T05:05:56.770Z,22.57
2018-09-06T05:06:37.281Z,22.6
2018-09-06T05:07:17.798Z,22.49
2018-09-06T05:07:58.311Z,22.51
2018-09-06T05:08:38.830Z,22.57
2018-09-06T05:09:19.348Z,22.58
2018-09-06T05:09:59.892Z,22.58
2018-09-06T05:10:40.408Z,22.62
2018-09-06T05:11:20.932Z,22.67
2018-09-06T05:12:01.465Z,22.57
2018-09-06T05:12:42.002Z,22.64
2018-09-06T05:13:22.541Z,22.6
2018-09-06T05:14:03.047Z,22.55
2018-09-06T05:14:43.589Z,22.67
2018-09-06T05:15:24.117Z,22.64
2018-09-06T05:16:04.643Z,22.57
2018-09-06T05:16:45.161Z,22.7
2018-09-06T05:17:25.680Z,22.64
2018-09-06T05:18:06.198Z,22.61
2018-09-06T05:18:46.722Z,22.68
2018-09-06T05:19:27.246Z,22.7
2018-09-06T05:20:07.763Z,22.65
2018-09-06T05:20:48.269Z,22.72
2018-09-06T05:21:28.816Z,22.68
2018-09-06T05:22:09.396Z,22.64
2018-09-06T05:22:49.852Z,22.77
2018-09-06T05:23:30.357Z,22.72
2018-09-06T05:24:10.875Z,22.73
2018-09-06T05:24:51.415Z,22.72
2018-09-06T05:25:31.934Z,22.79
2018-09-06T05:26:12.497Z,22.73
2018-09-06T05:26:53.008Z,22.8
2018-09-06T05:27:33.552Z,22.75
2018-09-06T05:28:14.089Z,22.88
2018-09-06T05:28:54.626Z,22.76
2018-09-06T05:29:35.143Z,22.79
2018-09-06T05:30:15.632Z,22.79
2018-09-06T05:30:56.167Z,22.86
2018-09-06T05:31:36.680Z,22.77
2018-09-06T05:32:17.178Z,22.85
2018-09-06T05:32:57.693Z,22.86
2018-09-06T05:33:38.214Z,22.85
2018-09-06T05:34:18.722Z,22.76
2018-09-06T05:34:59.316Z,22.8
2018-09-06T05:35:39.767Z,22.79
2018-09-06T05:36:20.355Z,22.79
2018-09-06T05:37:00.831Z,22.73
2018-09-06T05:37:41.425Z,22.76
2018-09-06T05:38:21.898Z,22.8
2018-09-06T05:39:02.414Z,22.77
2018-09-06T05:39:42.931Z,22.75
2018-09-06T05:40:23.450Z,22.77
2018-09-06T05:41:03.987Z,22.8
2018-09-06T05:41:44.515Z,22.79
2018-09-06T05:42:25.047Z,22.85
2018-09-06T05:43:05.571Z,22.79
2018-09-06T05:43:46.076Z,22.79
2018-09-06T05:44:26.657Z,22.85
2018-09-06T05:45:07.172Z,22.91
2018-09-06T05:45:47.703Z,22.9
2018-09-06T05:46:28.180Z,22.94
2018-09-06T05:47:08.693Z,22.85
2018-09-06T05:47:49.224Z,23
2018-09-06T05:48:29.744Z,22.98
2018-09-06T05:49:10.273Z,22.86
2018-09-06T05:49:50.789Z,22.85
2018-09-06T05:50:31.332Z,22.98
2018-09-06T05:51:11.875Z,22.91
2018-09-06T05:51:52.424Z,22.98
2018-09-06T05:52:33.016Z,22.98
2018-09-06T05:53:13.533Z,23.12
2018-09-06T05:53:54.066Z,23.16
2018-09-06T05:54:34.729Z,23.15
2018-09-06T05:55:15.215Z,23.22
2018-09-06T05:55:55.714Z,23.27
2018-09-06T05:56:36.232Z,23.28
2018-09-06T05:57:16.768Z,23.32
2018-09-06T05:57:57.399Z,23.32
2018-09-06T05:58:37.878Z,23.33
2018-09-06T05:59:18.479Z,23.36
2018-09-06T05:59:59.185Z,23.42
2018-09-06T06:00:39.635Z,23.46
2018-09-06T06:01:20.149Z,23.42
2018-09-06T06:02:00.650Z,23.39
2018-09-06T06:02:41.172Z,23.48
2018-09-06T06:03:21.690Z,23.46
2018-09-06T06:04:02.208Z,23.53
2018-09-06T06:04:42.721Z,23.6
2018-09-06T06:05:23.343Z,23.57
2018-09-06T06:06:03.765Z,23.66
2018-09-06T06:08:01.996Z,23.72
2018-09-06T06:08:42.505Z,23.8
2018-09-06T06:09:23.027Z,23.79
2018-09-06T06:10:03.545Z,23.76
2018-09-06T06:10:44.060Z,23.87
2018-09-06T06:11:24.596Z,23.95
2018-09-06T06:12:05.106Z,23.83
2018-09-06T06:12:45.570Z,23.91
2018-09-06T06:13:26.081Z,23.95
2018-09-06T06:14:06.589Z,24.05
2018-09-06T06:14:47.179Z,24.08
2018-09-06T06:15:27.588Z,24.05
2018-09-06T06:16:08.161Z,24.02
2018-09-06T06:16:48.659Z,24.06
2018-09-06T06:17:29.075Z,24.16
2018-09-06T06:18:09.598Z,24.13
2018-09-06T06:18:50.084Z,24.02
2018-09-06T06:19:30.551Z,24.02
2018-09-06T06:20:11.042Z,24.06
2018-09-06T06:20:51.562Z,24.02
2018-09-06T06:21:32.064Z,23.95
2018-09-06T06:22:12.599Z,23.9
2018-09-06T06:22:53.103Z,23.9
2018-09-06T06:23:33.644Z,23.84
2018-09-06T06:24:14.159Z,23.79
2018-09-06T06:24:54.644Z,23.85
2018-09-06T06:25:35.153Z,23.73
2018-09-06T06:26:15.666Z,23.7
2018-09-06T06:26:56.162Z,23.76
2018-09-06T06:27:36.688Z,23.73
2018-09-06T06:28:17.180Z,23.75
2018-09-06T06:28:57.685Z,23.73
2018-09-06T06:29:38.213Z,23.73
2018-09-06T06:30:18.741Z,23.72
2018-09-06T06:30:59.241Z,23.75
2018-09-06T06:31:39.773Z,23.75
2018-09-06T06:32:20.336Z,23.9
2018-09-06T06:33:00.752Z,23.9
2018-09-06T06:33:41.276Z,23.94
2018-09-06T06:34:21.737Z,23.91
2018-09-06T06:35:02.227Z,23.9
2018-09-06T06:35:42.783Z,23.84
2018-09-06T06:36:23.244Z,23.9
2018-09-06T06:37:03.712Z,23.93
2018-09-06T06:37:44.239Z,23.94
2018-09-06T06:38:24.713Z,23.94
2018-09-06T06:39:05.261Z,24.03
2018-09-06T06:39:45.871Z,24.1
2018-09-06T06:40:26.349Z,24.12
2018-09-06T06:41:06.886Z,24.15
2018-09-06T06:41:47.407Z,24.06
2018-09-06T06:42:27.922Z,24.15
2018-09-06T06:44:16.079Z,24.22
2018-09-06T06:44:56.607Z,24.28
2018-09-06T06:45:37.177Z,24.24
2018-09-06T06:46:17.774Z,24.28
2018-09-06T06:46:58.479Z,24.24
2018-09-06T06:47:39.008Z,24.28
2018-09-06T06:48:19.537Z,24.32
2018-09-06T06:49:00.063Z,24.3
2018-09-06T06:49:40.590Z,24.25
2018-09-06T06:50:21.135Z,24.3
2018-09-06T06:51:01.617Z,24.3
2018-09-06T06:51:42.119Z,24.32
2018-09-06T06:52:22.626Z,24.45
2018-09-06T06:53:03.147Z,24.34
2018-09-06T06:53:43.660Z,24.34
2018-09-06T06:54:24.170Z,24.37
2018-09-06T06:55:04.715Z,24.28
2018-09-06T06:55:45.188Z,24.27
2018-09-06T06:56:25.711Z,24.39
2018-09-06T06:57:06.220Z,24.5
2018-09-06T06:57:46.709Z,24.65
2018-09-06T06:58:27.263Z,24.67
2018-09-06T06:59:07.735Z,24.68
2018-09-06T06:59:48.236Z,24.67
2018-09-06T07:00:28.711Z,24.69
2018-09-06T07:01:09.234Z,24.57
2018-09-06T07:01:49.769Z,24.52
2018-09-06T07:02:30.232Z,24.65
2018-09-06T07:03:10.750Z,24.62
2018-09-06T07:03:51.234Z,24.49
2018-09-06T07:04:31.827Z,24.65
2018-09-06T07:05:12.318Z,24.68
2018-09-06T07:05:52.830Z,24.65
2018-09-06T07:06:33.341Z,24.69
2018-09-06T07:07:13.894Z,24.62
2018-09-06T07:07:54.378Z,24.77
2018-09-06T07:08:34.868Z,24.8
2018-09-06T07:09:15.363Z,25
2018-09-06T07:09:55.899Z,24.99
2018-09-06T07:10:36.415Z,25.02
2018-09-06T07:11:16.953Z,24.84
2018-09-06T07:11:57.480Z,24.95
2018-09-06T07:12:37.992Z,24.87
2018-09-06T07:13:18.517Z,24.8
2018-09-06T07:13:59.028Z,24.81
2018-09-06T07:14:39.543Z,24.67
2018-09-06T07:15:20.057Z,24.71
2018-09-06T07:16:00.573Z,24.71
2018-09-06T07:16:41.096Z,24.83
2018-09-06T07:17:21.615Z,24.83
2018-09-06T07:19:09.629Z,24.83
2018-09-06T07:19:50.153Z,24.83
2018-09-06T07:20:30.683Z,24.62
2018-09-06T07:21:11.213Z,24.69
2018-09-06T07:21:51.736Z,24.64
2018-09-06T07:22:32.253Z,24.69
2018-09-06T07:23:12.771Z,24.71
2018-09-06T07:23:53.274Z,24.78
2018-09-06T07:24:33.802Z,24.84
2018-09-06T07:25:14.318Z,24.78
2018-09-06T07:25:54.861Z,24.76
2018-09-06T07:26:35.376Z,24.8
2018-09-06T07:27:15.906Z,24.8
2018-09-06T07:27:56.427Z,24.81
2018-09-06T07:28:36.952Z,24.83
2018-09-06T07:29:17.486Z,24.9
2018-09-06T07:29:58.017Z,24.9
2018-09-06T07:30:38.608Z,24.88
2018-09-06T07:31:19.061Z,24.84
2018-09-06T07:31:59.611Z,24.87
2018-09-06T07:32:40.136Z,24.8
2018-09-06T07:33:20.650Z,24.83
2018-09-06T07:34:01.171Z,24.87
2018-09-06T07:34:41.694Z,24.91
2018-09-06T07:35:22.312Z,24.93
2018-09-06T07:36:02.748Z,24.91
2018-09-06T07:36:43.272Z,24.9
2018-09-06T07:37:23.799Z,24.95
2018-09-06T07:38:04.333Z,24.98
2018-09-06T07:38:44.867Z,24.93
2018-09-06T07:39:25.366Z,24.93
2018-09-06T07:40:05.893Z,24.87
2018-09-06T07:40:46.404Z,24.95
2018-09-06T07:41:27.037Z,24.88
2018-09-06T07:42:07.429Z,25.02
2018-09-06T07:42:47.948Z,24.99
2018-09-06T07:43:28.487Z,24.9
2018-09-06T07:44:08.991Z,24.98
2018-09-06T07:44:49.522Z,24.93
2018-09-06T07:45:30.051Z,24.85
2018-09-06T07:46:10.575Z,24.88
2018-09-06T07:46:51.181Z,24.8
2018-09-06T07:47:31.563Z,24.93
2018-09-06T07:48:12.092Z,24.78
2018-09-06T07:48:52.586Z,24.81
2018-09-06T07:49:33.095Z,24.77
2018-09-06T07:50:13.613Z,24.64
2018-09-06T07:50:54.232Z,24.68
2018-09-06T07:51:34.760Z,24.61
2018-09-06T07:52:15.324Z,24.49
2018-09-06T07:52:55.816Z,24.52
2018-09-06T07:53:36.321Z,24.68
2018-09-06T07:54:16.850Z,24.65
2018-09-06T07:54:57.372Z,24.73
2018-09-06T07:55:37.923Z,24.8
2018-09-06T07:56:18.407Z,24.81
2018-09-06T07:56:58.939Z,24.78
2018-09-06T07:57:39.427Z,24.71
2018-09-06T07:58:19.960Z,24.8
2018-09-06T07:59:00.483Z,24.77
2018-09-06T07:59:40.988Z,24.78
2018-09-06T08:00:21.503Z,24.87
2018-09-06T08:01:02.033Z,24.87
2018-09-06T08:01:42.613Z,24.85
2018-09-06T08:02:23.071Z,24.88
2018-09-06T08:03:03.668Z,24.95
2018-09-06T08:04:41.523Z,24.93
2018-09-06T08:05:22.041Z,24.87
2018-09-06T08:06:02.558Z,24.91
2018-09-06T08:06:43.089Z,24.99
2018-09-06T08:07:23.599Z,25.03
2018-09-06T08:08:04.111Z,25.06
2018-09-06T08:08:45.491Z,25.05
2018-09-06T08:10:23.350Z,25.1
2018-09-06T08:11:03.869Z,25.21
2018-09-06T08:11:44.370Z,25.2
2018-09-06T08:12:24.883Z,25.32
2018-09-06T08:13:05.424Z,25.32
2018-09-06T08:13:45.927Z,25.42
2018-09-06T08:14:26.443Z,25.45
2018-09-06T08:15:06.965Z,25.3
2018-09-06T08:15:47.484Z,25.36
2018-09-06T08:16:28.006Z,25.39
2018-09-06T08:17:08.574Z,25.33
2018-09-06T08:17:49.049Z,25.27
2018-09-06T08:18:29.570Z,25.25
2018-09-06T08:19:10.097Z,25.33
2018-09-06T08:19:50.621Z,25.4
2018-09-06T08:20:31.174Z,25.33
2018-09-06T08:21:11.709Z,25.32
2018-09-06T08:21:52.241Z,25.3
2018-09-06T08:22:32.764Z,25.2
2018-09-06T08:23:13.292Z,25.17
2018-09-06T08:23:53.821Z,25.17
2018-09-06T08:24:34.441Z,25.17
2018-09-06T08:25:15.021Z,25.17
2018-09-06T08:25:55.535Z,25.14
2018-09-06T08:26:36.062Z,25.2
2018-09-06T08:27:16.598Z,25.09
2018-09-06T08:27:57.147Z,25.13
2018-09-06T08:28:37.670Z,25.09
2018-09-06T08:29:18.201Z,25.09
2018-09-06T08:29:58.732Z,25.08
2018-09-06T08:30:39.363Z,25.09
2018-09-06T08:31:19.859Z,25.1
2018-09-06T08:32:00.365Z,25.13
2018-09-06T08:32:40.887Z,25.06
2018-09-06T08:33:21.424Z,24.91
2018-09-06T08:34:01.933Z,24.88
2018-09-06T08:34:42.488Z,24.88
2018-09-06T08:35:23.014Z,24.83
2018-09-06T08:36:03.553Z,24.84
2018-09-06T08:36:44.148Z,24.95
2018-09-06T08:37:24.599Z,24.95
2018-09-06T08:38:05.122Z,25.06
2018-09-06T08:38:45.703Z,25.14
2018-09-06T08:39:26.246Z,25.13
2018-09-06T08:40:06.749Z,25.24
2018-09-06T08:40:47.263Z,25.27
2018-09-06T08:41:27.796Z,25.23
2018-09-06T08:42:08.319Z,25.18
2018-09-06T08:42:48.864Z,25.33
2018-09-06T08:43:29.377Z,25.39
2018-09-06T08:44:09.911Z,25.43
2018-09-06T08:44:50.423Z,25.39
2018-09-06T08:45:30.964Z,25.47
2018-09-06T08:46:11.462Z,25.58
2018-09-06T08:46:51.997Z,25.57
2018-09-06T08:47:32.549Z,25.47
2018-09-06T08:48:13.056Z,25.62
2018-09-06T08:48:53.581Z,25.47
2018-09-06T08:49:34.119Z,25.6
2018-09-06T08:50:14.671Z,25.65
2018-09-06T08:50:55.166Z,25.65
2018-09-06T08:51:35.706Z,25.69
2018-09-06T08:52:16.280Z,25.65
2018-09-06T08:52:56.744Z,25.67
2018-09-06T08:53:37.249Z,25.72